Latest Weather Observations for Blackall

IDQ60801

Issued at 9:02 am EST Saturday 31 January 2015 (issued every 30 minutes, with the page automatically refreshed every 10 minutes)

About weather observations | Map of weather stations | Latest weather observations for QLD | Other Formats
Station Details ID: 036034 Name: BLACKALL AIRPORT Lat: -24.43 Lon: 145.43 Height: 281.3 m
Data from the previous 72 hours. | See also: Recent months at Blackall
Date/Time
EST
Temp
°C
App
Temp
°C
Dew
Point
Rel
Hum
%
Delta-T
°C
Wind Press
QNH
hPa
Press
MSL
hPa
Rain
since 9 am
mm
Dir
 
Spd
km/h
Gust
km/h
Spd
kts
Gust
kts
31/09:00am 30.7 30.2 15.9 40 9.3 NW 13 26 7 14 1009.1 1007.0 0.0
31/08:30am 30.0 29.4 15.7 42 9.0 NNW 13 19 7 10 1009.2 1007.1 0.0
31/08:00am 28.9 28.5 15.1 43 8.5 N 11 17 6 9 1009.2 1007.1 0.0
31/07:30am 27.4 27.1 14.4 45 7.9 NNE 9 19 5 10 1009.1 1007.0 0.0
31/07:00am 26.7 27.3 15.4 50 7.0 E 6 7 3 4 1009.0 1006.9 0.0
31/06:30am 24.5 25.2 14.6 54 6.0 ESE 4 6 2 3 1008.7 1006.6 0.0
31/06:00am 22.9 23.5 14.2 58 5.2 ENE 4 7 2 4 1008.5 1006.4 0.0
31/05:30am 23.2 24.4 13.9 56 5.5 CALM 0 0 0 0 1008.0 1005.9 0.0
31/05:00am 23.8 24.9 13.6 52 6.0 CALM 0 0 0 0 1007.8 1005.7 0.0
31/04:30am 24.5 24.9 13.7 51 6.4 NNE 4 6 2 3 1007.7 1005.6 0.0
31/04:00am 25.0 25.0 14.2 51 6.5 NE 7 9 4 5 1007.4 1005.3 0.0
31/03:30am 25.3 25.2 13.8 49 6.9 ENE 7 7 4 4 1007.2 1005.1 0.0
31/03:00am 25.7 26.0 13.5 46 7.3 N 4 6 2 3 1007.1 1005.0 0.0
31/02:30am 26.7 26.7 14.1 46 7.6 NE 7 11 4 6 1006.8 1004.7 0.0
31/02:00am 26.6 26.5 14.0 46 7.6 NE 7 9 4 5 1006.6 1004.6 0.0
31/01:30am 26.9 26.8 14.0 45 7.8 NE 7 9 4 5 1006.5 1004.5 0.0
31/01:00am 27.4 27.2 13.7 43 8.2 ENE 7 9 4 5 1006.6 1004.6 0.0
31/12:30am 27.9 27.4 13.8 42 8.5 N 9 11 5 6 1006.8 1004.7 0.0
31/12:00am 28.5 28.1 14.0 41 8.8 NNE 9 11 5 6 1007.0 1004.9 0.0
 
Date/Time
EST
Temp
°C
App
Temp
°C
Dew
Point
Rel
Hum
%
Delta-T
°C
Wind Press
QNH
hPa
Press
MSL
hPa
Rain
since 9 am
mm
Dir
 
Spd
km/h
Gust
km/h
Spd
kts
Gust
kts
30/11:30pm 29.1 28.9 13.7 38 9.3 NNE 7 9 4 5 1007.3 1005.2 0.0
30/11:00pm 30.0 28.7 13.7 37 9.9 NNE 13 19 7 10 1007.1 1005.0 0.0
30/10:30pm 30.8 29.5 13.6 35 10.4 NNE 13 20 7 11 1007.1 1005.0 0.0
30/10:00pm 31.4 29.9 13.2 33 11.0 NE 13 20 7 11 1006.9 1004.8 0.0
30/09:30pm 31.8 30.1 12.6 31 11.5 NE 13 17 7 9 1006.5 1004.5 0.0
30/09:00pm 32.0 30.9 10.1 26 12.7 E 6 17 3 9 1006.3 1004.2 0.0
30/08:30pm 32.8 32.7 9.6 24 13.4 CALM 0 0 0 0 1006.0 1003.9 0.0
30/08:00pm 33.5 32.3 9.5 23 13.9 S 6 7 3 4 1005.6 1003.5 0.0
30/07:30pm 33.8 32.3 9.1 22 14.2 S 7 9 4 5 1005.4 1003.3 0.0
30/07:00pm 34.4 32.5 8.9 21 14.7 S 9 13 5 7 1005.1 1003.0 0.0
30/06:30pm 35.1 33.1 7.2 18 15.6 SSE 7 13 4 7 1004.7 1002.6 0.0
30/06:00pm 36.0 33.5 8.0 18 16.0 SE 11 20 6 11 1004.6 1002.5 0.0
30/05:30pm 36.1 33.6 8.0 18 16.0 SE 11 17 6 9 1004.4 1002.3 0.0
30/05:00pm 36.4 35.0 7.4 17 16.5 WNW 4 20 2 11 1004.4 1002.3 0.0
30/04:30pm 36.5 34.8 8.4 18 16.1 WSW 7 13 4 7 1004.5 1002.4 0.0
30/04:00pm 35.8 34.2 8.6 19 15.7 ESE 7 11 4 6 1004.7 1002.6 0.0
30/03:30pm 35.7 34.2 10.7 22 14.8 SW 9 13 5 7 1005.2 1003.1 0.0
30/03:00pm 36.4 33.5 9.8 20 15.6 S 15 24 8 13 1005.6 1003.5 0.0
30/02:30pm 34.8 33.1 11.2 24 14.0 SW 11 28 6 15 1006.0 1003.9 0.0
30/02:00pm 34.5 31.6 9.7 22 14.4 ESE 15 26 8 14 1006.4 1004.4 0.0
30/01:30pm 35.1 33.3 10.9 23 14.4 SSW 11 19 6 10 1007.0 1004.9 0.0
30/01:00pm 33.7 31.2 10.9 25 13.5 SSE 15 22 8 12 1007.6 1005.5 0.0
30/12:30pm 34.1 32.2 11.9 26 13.3 S 13 20 7 11 1008.0 1005.9 0.0
30/12:00pm 33.7 32.5 12.7 28 12.7 SE 11 17 6 9 1008.4 1006.3 0.0
30/11:30am 31.9 30.5 12.2 30 11.8 NNE 11 20 6 11 1008.8 1006.7 0.0
30/11:00am 32.0 30.6 12.3 30 11.8 N 11 22 6 12 1009.0 1006.9 0.0
30/10:30am 31.3 30.7 15.7 39 9.8 NNE 13 28 7 15 1009.2 1007.1 0.0
30/10:00am 30.7 29.8 15.9 40 9.3 NNE 15 26 8 14 1009.5 1007.4 0.0
30/09:30am 30.4 29.8 17.5 46 8.3 ENE 17 22 9 12 1009.5 1007.4 0.0
30/09:00am 29.0 28.0 17.5 49 7.4 NNE 19 26 10 14 1009.6 1007.6 0.0
30/08:30am 28.2 27.8 18.0 54 6.6 NNE 17 22 9 12 1009.6 1007.6 0.0
30/08:00am 26.7 25.9 18.0 59 5.6 NE 19 24 10 13 1009.4 1007.3 0.0
30/07:30am 25.7 25.8 18.4 64 4.7 ENE 15 20 8 11 1009.5 1007.4 0.0
30/07:00am 25.0 25.7 18.0 65 4.5 E 11 17 6 9 1009.4 1007.3 0.0
30/06:30am 23.8 24.5 17.1 66 4.2 E 9 13 5 7 1009.1 1007.0 0.0
30/06:00am 22.6 23.1 16.6 69 3.7 E 9 9 5 5 1008.5 1006.4 0.0
30/05:30am 22.6 23.0 16.2 67 3.9 E 9 11 5 6 1008.1 1006.0 0.0
30/05:00am 22.9 22.8 16.0 65 4.2 SE 11 13 6 7 1007.9 1005.8 0.0
30/04:30am 23.1 23.5 15.4 62 4.7 SE 7 9 4 5 1007.7 1005.6 0.0
30/04:00am 23.5 23.6 15.5 60 4.9 SE 9 13 5 7 1007.7 1005.6 0.0
30/03:30am 23.8 24.3 15.0 57 5.3 ESE 6 7 3 4 1007.4 1005.3 0.0
30/03:00am 24.6 24.7 15.5 57 5.6 E 9 11 5 6 1007.2 1005.1 0.0
30/02:30am 25.3 24.8 15.9 56 5.8 ENE 13 15 7 8 1007.2 1005.1 0.0
30/02:00am 25.7 25.1 15.7 54 6.2 E 13 17 7 9 1007.4 1005.3 0.0
30/01:30am 26.1 25.4 15.5 52 6.5 E 13 17 7 9 1007.6 1005.5 0.0
30/01:00am 26.4 25.6 15.1 49 6.9 E 13 17 7 9 1007.8 1005.7 0.0
30/12:30am 26.5 25.7 13.9 45 7.6 E 11 13 6 7 1007.9 1005.8 0.0
30/12:00am 26.6 26.2 13.0 43 8.1 E 7 9 4 5 1008.2 1006.1 0.0
 
Date/Time
EST
Temp
°C
App
Temp
°C
Dew
Point
Rel
Hum
%
Delta-T
°C
Wind Press
QNH
hPa
Press
MSL
hPa
Rain
since 9 am
mm
Dir
 
Spd
km/h
Gust
km/h
Spd
kts
Gust
kts
29/11:30pm 27.0 25.9 11.9 39 8.8 E 9 11 5 6 1008.2 1006.1 0.0
29/11:00pm 27.5 26.2 11.1 36 9.5 E 9 11 5 6 1008.0 1005.9 0.0
29/10:30pm 28.2 27.0 10.4 33 10.2 ESE 7 11 4 6 1008.0 1005.9 0.0
29/10:00pm 29.2 26.9 10.3 31 10.8 E 13 15 7 8 1007.8 1005.7 0.0
29/09:30pm 29.8 27.3 8.2 26 12.0 ESE 11 15 6 8 1007.5 1005.4 0.0
29/09:00pm 30.7 28.0 9.0 26 12.3 SE 13 19 7 10 1007.1 1005.0 0.0
29/08:30pm 31.4 28.3 9.0 25 12.7 SSE 15 24 8 13 1006.8 1004.7 0.0
29/08:00pm 31.9 28.4 8.8 24 13.1 SSE 17 24 9 13 1006.3 1004.2 0.0
29/07:30pm 32.6 28.9 8.1 22 13.8 SSE 17 26 9 14 1005.8 1003.7 0.0
29/07:00pm 33.4 29.6 7.4 20 14.5 SSE 17 26 9 14 1005.4 1003.3 0.0
29/06:30pm 34.5 30.1 7.5 19 15.2 SE 20 30 11 16 1005.0 1002.9 0.0
29/06:00pm 34.9 30.8 8.6 20 15.1 ESE 20 32 11 17 1004.6 1002.5 0.0
29/05:30pm 34.2 30.5 8.0 20 14.8 ESE 17 24 9 13 1004.3 1002.2 0.0
29/05:00pm 36.0 33.1 8.0 18 16.0 SSE 13 20 7 11 1004.1 1002.0 0.0
29/04:30pm 35.1 31.2 7.2 18 15.6 SSE 17 24 9 13 1004.1 1002.0 0.0
29/04:00pm 35.1 31.4 8.0 19 15.4 S 17 30 9 16 1004.2 1002.1 0.0
29/03:30pm 34.5 30.9 8.3 20 14.9 SE 17 28 9 15 1004.4 1002.3 0.0
29/03:00pm 34.2 30.5 9.4 22 14.4 SSE 19 26 10 14 1004.7 1002.6 0.0
29/02:30pm 33.7 30.2 10.3 24 13.7 S 19 30 10 16 1004.9 1002.8 0.0
29/02:00pm 35.1 33.1 12.7 26 13.7 S 15 28 8 15 1005.0 1002.9 0.0
29/01:30pm 34.6 32.5 12.3 26 13.5 ENE 15 24 8 13 1005.2 1003.1 0.0
29/01:00pm 34.5 31.6 12.2 26 13.5 S 19 32 10 17 1005.7 1003.6 0.0
29/12:30pm 33.5 30.9 11.9 27 12.9 SE 17 30 9 16 1006.2 1004.1 0.0
29/12:00pm 33.3 31.9 13.4 30 12.2 E 13 24 7 13 1006.5 1004.5 0.0
29/11:30am 32.7 31.2 15.2 34 11.0 SSE 17 28 9 15 1007.0 1004.9 0.0
29/11:00am 32.3 31.7 16.6 39 10.0 ESE 15 26 8 14 1007.4 1005.3 0.0
29/10:30am 30.9 30.1 17.2 43 8.8 E 17 24 9 13 1007.6 1005.5 0.0
29/10:00am 30.3 29.5 18.1 48 7.9 ESE 19 28 10 15 1007.8 1005.7 0.0
29/09:30am 29.7 29.5 18.5 51 7.3 ESE 17 28 9 15 1008.0 1005.9 0.0
29/09:00am 28.4 27.8 18.8 56 6.3 E 20 28 11 15 1008.1 1006.0 0.0
29/08:30am 27.5 27.1 18.8 59 5.6 E 19 24 10 13 1008.1 1006.0 0.0
29/08:00am 26.4 26.2 18.5 62 5.1 ESE 17 22 9 12 1007.8 1005.7 0.0
29/07:30am 25.4 25.0 18.1 64 4.7 ESE 17 22 9 12 1007.6 1005.5 0.0
29/07:00am 24.2 24.2 17.2 65 4.4 SE 13 20 7 11 1007.5 1005.4 0.0
29/06:30am 23.3 23.1 16.8 67 4.0 ESE 13 19 7 10 1007.0 1004.9 0.0
29/06:00am 23.1 23.4 17.1 69 3.7 E 11 17 6 9 1006.6 1004.6 0.0
29/05:30am 23.2 22.6 16.7 67 4.0 ESE 15 20 8 11 1006.2 1004.1 0.0
29/05:00am 23.5 23.0 16.8 66 4.2 ESE 15 20 8 11 1005.9 1003.8 0.0
29/04:30am 23.8 23.8 17.1 66 4.2 ESE 13 19 7 10 1005.9 1003.8 0.0
29/04:00am 23.7 24.4 17.0 66 4.2 ESE 9 13 5 7 1005.9 1003.8 0.0
29/03:30am 24.0 24.8 17.3 66 4.2 SE 9 13 5 7 1005.8 1003.7 0.0
29/03:00am 24.2 25.0 17.4 65 4.3 ESE 9 11 5 6 1005.5 1003.4 0.0
29/02:30am 24.6 25.4 17.3 64 4.6 ESE 9 11 5 6 1005.5 1003.4 0.0
29/02:00am 25.1 25.7 16.8 60 5.2 ESE 9 13 5 7 1005.4 1003.3 0.0
29/01:30am 25.3 25.4 15.6 55 6.0 ESE 9 11 5 6 1005.5 1003.4 0.0
29/01:00am 25.9 25.7 15.6 53 6.4 ESE 11 13 6 7 1005.4 1003.3 0.0
29/12:30am 26.5 26.0 15.8 51 6.6 ESE 13 19 7 10 1005.4 1003.3 0.0
29/12:00am 27.0 26.0 15.7 50 7.0 SE 15 24 8 13 1005.6 1003.5 0.0
 
Date/Time
EST
Temp
°C
App
Temp
°C
Dew
Point
Rel
Hum
%
Delta-T
°C
Wind Press
QNH
hPa
Press
MSL
hPa
Rain
since 9 am
mm
Dir
 
Spd
km/h
Gust
km/h
Spd
kts
Gust
kts
28/11:30pm 27.5 26.1 15.5 48 7.4 SE 17 22 9 12 1006.1 1004.0 0.0
28/11:00pm 28.0 25.8 15.0 45 8.0 SE 20 33 11 18 1006.2 1004.1 0.0
28/10:30pm 28.7 25.1 13.0 38 9.4 ESE 24 32 13 17 1006.0 1003.9 0.0
28/10:00pm 29.3 25.8 12.3 35 10.1 SE 22 30 12 16 1005.6 1003.5 0.0
28/09:30pm 29.4 27.8 14.0 39 9.4 ESE 15 24 8 13 1005.2 1003.1 0.0
28/09:00pm 29.5 27.6 15.2 41 8.9 ESE 19 28 10 15 1004.7 1002.6 0.0
28/08:30pm 29.4 28.1 17.2 47 7.8 E 20 30 11 16 1004.2 1002.1 0.0
28/08:00pm 29.7 27.7 17.5 48 7.8 ESE 24 33 13 18 1003.9 1001.8 0.0
28/07:30pm 30.2 27.2 16.9 44 8.5 ESE 28 37 15 20 1003.1 1000.9 0.0
28/07:00pm 31.0 28.1 17.0 43 9.0 E 28 41 15 22 1002.3 1000.2 0.0
28/06:30pm 33.7 28.9 11.5 26 13.2 SE 28 39 15 21 1001.7 999.6 0.0
28/06:00pm 35.3 31.1 11.0 23 14.5 SE 24 33 13 18 1000.8 998.7 0.0
28/05:30pm 36.1 32.5 11.7 23 14.7 SE 22 32 12 17 1000.4 998.3 0.0
28/05:00pm 36.3 33.3 10.5 21 15.4 S 17 22 9 12 1000.1 998.0 0.0
28/04:30pm 37.0 33.7 9.6 19 16.1 S 17 26 9 14 999.8 997.6 0.0
28/04:00pm 37.6 34.2 9.2 18 16.7 SSW 17 24 9 13 999.9 997.7 0.0
28/03:30pm 36.7 33.0 10.1 20 15.7 S 20 30 11 16 1000.0 997.9 0.0
28/03:00pm 36.0 32.9 10.2 21 15.3 S 17 33 9 18 1000.1 998.0 0.0
28/02:30pm 36.6 33.4 11.4 22 15.1 SSW 19 33 10 18 1000.2 998.1 0.0
28/02:00pm 36.8 33.9 10.9 21 15.5 SW 17 28 9 15 1000.5 998.4 0.0
28/01:30pm 36.0 33.3 12.9 25 14.2 S 19 26 10 14 1000.9 998.8 0.0
28/01:00pm 35.0 32.2 12.6 26 13.7 SSW 19 32 10 17 1001.5 999.4 0.0
28/12:30pm 35.0 33.7 13.8 28 13.1 SE 13 22 7 12 1001.9 999.8 0.0
28/12:00pm 35.1 34.4 16.4 32 12.0 ESE 15 26 8 14 1002.3 1000.2 0.0
28/11:30am 33.8 33.8 17.1 37 10.8 ESE 13 22 7 12 1002.7 1000.6 0.0
28/11:00am 33.7 33.2 17.8 38 10.4 ESE 17 28 9 15 1003.1 1000.9 0.0
28/10:30am 31.9 31.8 17.8 43 9.1 ESE 15 26 8 14 1003.5 1001.4 0.0
28/10:00am 31.0 30.8 18.4 47 8.2 SE 17 30 9 16 1003.6 1001.5 0.0
28/09:30am 30.8 31.1 19.5 51 7.5 SE 17 26 9 14 1003.6 1001.5 0.0

Other Formats:

Comma delimited format used in spreadsheet applications
http://www.bom.gov.au/fwo/IDQ60801/IDQ60801.95351.axf

JavaScript Object Notation format (JSON) in row-major order
http://www.bom.gov.au/fwo/IDQ60801/IDQ60801.95351.json